Time;durP1;ratioP1;P1;durP2;ratioP2;P2;SDS_P1;SDS_P2;PMS_P1;PMS_P2;Temp;Humidity;BMP_temperature;BMP_pressure;BME280_temperature;BME280_humidity;BME280_pressure;Samples;Min_cycle;Max_cycle;Signal;HPM_P1;HPM_P2
2022/11/11 00:00:16;;;;;;;3.20;2.90;;;11.70;92.00;;;;;;5104187;28;20840;-68
2022/11/11 00:02:43;;;;;;;5.87;3.50;;;11.70;91.70;;;;;;5103290;28;20467;-68
2022/11/11 00:05:10;;;;;;;6.87;3.40;;;11.80;91.70;;;;;;5103790;28;20457;-68
2022/11/11 00:07:37;;;;;;;10.50;3.30;;;11.70;91.60;;;;;;5103107;28;20442;-68
2022/11/11 00:10:04;;;;;;;6.50;4.00;;;11.70;91.50;;;;;;5103455;28;20462;-68
2022/11/11 00:12:31;;;;;;;5.23;3.10;;;11.60;91.50;;;;;;5102783;28;20479;-68
2022/11/11 00:14:59;;;;;;;6.00;3.60;;;11.60;91.50;;;;;;5103173;28;20984;-68
2022/11/11 00:26:05;;;;;;;6.70;4.07;;;11.70;91.30;;;;;;5103008;28;20428;-68
2022/11/11 00:28:32;;;;;;;6.90;4.57;;;11.70;91.20;;;;;;5103182;28;20796;-68
2022/11/11 00:31:04;;;;;;;10.43;3.57;;;11.70;91.00;;;;;;5103620;28;20969;-68
2022/11/11 00:33:31;;;;;;;5.00;3.37;;;11.70;90.90;;;;;;5103516;28;20470;-68
2022/11/11 00:35:57;;;;;;;5.83;3.50;;;11.70;90.90;;;;;;5102199;28;20478;-68
2022/11/11 00:41:10;;;;;;;7.30;3.50;;;11.60;91.00;;;;;;5102755;28;20553;-68
2022/11/11 00:43:36;;;;;;;6.30;4.00;;;11.60;91.30;;;;;;5104285;28;20471;-68
2022/11/11 00:51:34;;;;;;;3.67;3.00;;;11.40;91.60;;;;;;5109568;28;20519;-68
2022/11/11 00:54:01;;;;;;;6.47;3.30;;;11.40;91.70;;;;;;5110084;28;20462;-68
2022/11/11 00:56:28;;;;;;;6.50;3.63;;;11.40;91.70;;;;;;5109953;28;20822;-68
2022/11/11 00:58:55;;;;;;;8.83;4.27;;;11.40;91.70;;;;;;5110406;28;20491;-68
2022/11/11 01:01:23;;;;;;;8.03;3.50;;;11.40;91.80;;;;;;5109916;28;20428;-68
2022/11/11 01:03:50;;;;;;;3.63;3.10;;;11.40;91.90;;;;;;5110513;28;20470;-68
2022/11/11 01:06:16;;;;;;;5.50;3.30;;;11.30;91.90;;;;;;5109467;28;20451;-68
2022/11/11 01:08:43;;;;;;;6.87;3.70;;;11.30;91.90;;;;;;5110072;28;20443;-67
2022/11/11 01:11:14;;;;;;;5.73;3.83;;;11.30;92.00;;;;;;5109258;28;20448;-67
2022/11/11 01:13:42;;;;;;;5.43;2.90;;;11.30;91.90;;;;;;5108525;28;20465;-67
2022/11/11 01:16:12;;;;;;;6.60;3.43;;;11.30;91.90;;;;;;5109114;28;20830;-67
2022/11/11 01:18:41;;;;;;;6.10;3.73;;;11.30;91.90;;;;;;5112104;28;20981;-66
2022/11/11 01:21:10;;;;;;;8.07;4.50;;;11.30;91.90;;;;;;5111626;28;20797;-67
2022/11/11 01:23:39;;;;;;;4.63;3.13;;;11.30;91.90;;;;;;5108102;28;20472;-67
2022/11/11 01:26:09;;;;;;;4.63;3.10;;;11.30;92.00;;;;;;5108943;28;20446;-67
2022/11/11 01:28:36;;;;;;;5.03;3.87;;;11.20;92.00;;;;;;5109874;28;20441;-67
2022/11/11 01:31:05;;;;;;;5.00;3.67;;;11.20;92.00;;;;;;5108940;28;20449;-67
2022/11/11 01:33:32;;;;;;;4.33;3.10;;;11.20;91.90;;;;;;5108149;28;20466;-67
2022/11/11 01:36:05;;;;;;;3.90;3.10;;;11.20;91.60;;;;;;5108309;28;20476;-67
2022/11/11 01:38:32;;;;;;;10.63;3.67;;;11.20;91.40;;;;;;5109030;28;20973;-67
2022/11/11 01:40:59;;;;;;;5.07;3.87;;;11.20;91.10;;;;;;5108489;28;20453;-67
2022/11/11 01:43:26;;;;;;;4.50;3.17;;;11.10;91.10;;;;;;5108162;28;20471;-67
2022/11/11 01:45:56;;;;;;;4.30;3.00;;;11.10;91.40;;;;;;5108238;28;20813;-67
2022/11/11 01:51:20;;;;;;;6.67;3.80;;;11.10;91.30;;;;;;5109267;28;20414;-67
2022/11/11 01:53:51;;;;;;;4.13;3.27;;;11.10;91.40;;;;;;5108838;28;20489;-68
2022/11/11 01:56:18;;;;;;;4.90;2.70;;;11.10;91.50;;;;;;5105258;28;20910;-68
2022/11/11 01:58:45;;;;;;;3.13;2.63;;;11.10;91.50;;;;;;5112915;28;20486;-68
2022/11/11 02:01:12;;;;;;;5.53;3.00;;;11.10;91.50;;;;;;5117433;28;20438;-67
2022/11/11 02:03:40;;;;;;;6.03;3.23;;;11.10;91.30;;;;;;5116854;28;20475;-67
2022/11/11 02:06:07;;;;;;;3.30;3.00;;;11.00;91.00;;;;;;5116721;28;20536;-67
2022/11/11 02:08:37;;;;;;;4.70;3.07;;;11.00;90.80;;;;;;5116956;28;20436;-67
2022/11/11 02:11:09;;;;;;;5.50;2.87;;;11.00;90.70;;;;;;5120077;28;20434;-66
2022/11/11 02:16:23;;;;;;;3.07;2.40;;;11.00;90.60;;;;;;5106503;28;20487;-66
2022/11/11 02:18:50;;;;;;;5.00;3.53;;;11.00;90.90;;;;;;5087688;28;20482;-66
2022/11/11 02:21:36;;;;;;;3.90;3.20;;;11.00;91.10;;;;;;5106559;28;20826;-67
2022/11/11 02:24:09;;;;;;;7.07;3.33;;;10.90;91.10;;;;;;5087348;28;20474;-67
2022/11/11 02:26:38;;;;;;;7.47;3.90;;;10.80;91.10;;;;;;5105514;28;20443;-67
2022/11/11 02:29:10;;;;;;;4.13;3.00;;;10.90;91.30;;;;;;5105121;28;20451;-67
2022/11/11 02:31:37;;;;;;;9.20;3.37;;;10.80;91.30;;;;;;5105110;28;20783;-67
2022/11/11 02:34:04;;;;;;;3.53;3.23;;;10.80;91.20;;;;;;5105615;28;20813;-67
2022/11/11 02:36:31;;;;;;;3.90;3.07;;;10.80;91.50;;;;;;5105619;28;20462;-67
2022/11/11 02:38:57;;;;;;;3.60;3.20;;;10.80;91.60;;;;;;5107157;28;20490;-67
2022/11/11 02:44:09;;;;;;;3.60;3.07;;;10.80;92.00;;;;;;5112063;28;20429;-66
2022/11/11 02:46:36;;;;;;;6.13;3.20;;;10.70;92.00;;;;;;5107936;28;20458;-68
2022/11/11 02:49:03;;;;;;;5.70;3.33;;;10.70;91.80;;;;;;5106884;28;20450;-68
2022/11/11 02:51:30;;;;;;;4.30;3.33;;;10.70;92.00;;;;;;5106542;28;20450;-67
2022/11/11 02:54:01;;;;;;;5.17;3.23;;;10.70;92.20;;;;;;5106777;28;20459;-67
2022/11/11 02:59:14;;;;;;;3.83;3.50;;;10.70;92.30;;;;;;5105899;28;20465;-67
2022/11/11 03:01:41;;;;;;;5.60;3.20;;;10.70;92.20;;;;;;5106320;28;20455;-67
2022/11/11 03:04:08;;;;;;;3.33;3.03;;;10.70;92.00;;;;;;5105101;28;20499;-67
2022/11/11 03:06:34;;;;;;;3.60;3.00;;;10.70;91.70;;;;;;5105975;28;20452;-67
2022/11/11 03:09:01;;;;;;;3.73;3.23;;;10.60;91.40;;;;;;5105785;28;20445;-67
2022/11/11 03:11:29;;;;;;;5.17;3.20;;;10.60;91.20;;;;;;5105442;28;20450;-67
2022/11/11 03:13:57;;;;;;;3.50;3.20;;;10.60;91.00;;;;;;5105295;28;20819;-67
2022/11/11 03:19:07;;;;;;;4.47;2.80;;;10.60;90.80;;;;;;5104397;28;20493;-67
2022/11/11 03:21:34;;;;;;;3.50;3.20;;;10.60;90.70;;;;;;5105866;28;20450;-67
2022/11/11 03:24:01;;;;;;;5.80;3.00;;;10.60;91.00;;;;;;5105898;28;20473;-67
2022/11/11 03:26:28;;;;;;;3.27;2.97;;;10.60;90.60;;;;;;5107730;28;20941;-66
2022/11/11 03:28:55;;;;;;;4.27;3.20;;;10.50;90.50;;;;;;5106736;28;20446;-67
2022/11/11 03:31:21;;;;;;;2.90;2.60;;;10.50;90.40;;;;;;5104649;28;20455;-67
2022/11/11 03:33:48;;;;;;;6.27;3.20;;;10.40;90.20;;;;;;5104397;28;20473;-67
2022/11/11 03:36:15;;;;;;;4.63;3.10;;;10.40;90.00;;;;;;5103873;28;20461;-67
2022/11/11 03:38:41;;;;;;;3.77;3.03;;;10.40;90.00;;;;;;5103620;28;20493;-67
2022/11/11 03:41:08;;;;;;;3.30;3.00;;;10.30;89.90;;;;;;5104229;28;20498;-67
2022/11/11 03:43:36;;;;;;;2.83;2.50;;;10.30;90.00;;;;;;5105433;28;20228;-68
2022/11/11 03:46:05;;;;;;;4.27;3.33;;;10.30;90.20;;;;;;5104130;28;20794;-68
2022/11/11 03:48:34;;;;;;;3.87;3.40;;;10.30;90.20;;;;;;5104618;28;20443;-68
2022/11/11 03:51:01;;;;;;;3.60;3.23;;;10.30;90.20;;;;;;5104075;28;20463;-67
2022/11/11 03:53:28;;;;;;;3.90;2.67;;;10.30;90.20;;;;;;5105294;28;20474;-67
2022/11/11 03:55:54;;;;;;;3.70;2.70;;;10.30;90.20;;;;;;5104425;28;20453;-67
2022/11/11 03:58:21;;;;;;;4.97;3.23;;;10.30;90.20;;;;;;5104254;28;20848;-68
2022/11/11 04:00:49;;;;;;;6.23;3.73;;;10.30;90.40;;;;;;5104875;28;20440;-68
2022/11/11 04:11:38;;;;;;;6.43;3.40;;;10.10;92.20;;;;;;5104495;28;20405;-68
2022/11/11 04:16:53;;;;;;;6.23;3.30;;;10.10;92.60;;;;;;5103927;28;20443;-68
2022/11/11 04:22:01;;;;;;;3.90;3.50;;;10.10;92.90;;;;;;5058640;28;20473;-68
2022/11/11 04:27:14;;;;;;;3.77;3.17;;;10.10;92.80;;;;;;5103931;28;20397;-68
2022/11/11 04:29:41;;;;;;;5.37;3.10;;;10.10;92.90;;;;;;5103639;28;20443;-67
2022/11/11 04:34:57;;;;;;;8.20;3.37;;;10.10;92.90;;;;;;5104198;28;20416;-67
2022/11/11 04:37:25;;;;;;;4.67;2.73;;;10.10;92.90;;;;;;5102243;28;20453;-67
2022/11/11 04:42:38;;;;;;;6.13;3.67;;;10.10;93.10;;;;;;5105425;28;20490;-67
2022/11/11 04:47:56;;;;;;;4.37;3.90;;;10.10;93.10;;;;;;5105351;28;20452;-67
2022/11/11 04:50:24;;;;;;;6.57;3.73;;;10.10;92.90;;;;;;5105312;28;20790;-67
2022/11/11 04:52:51;;;;;;;4.07;3.50;;;10.10;93.10;;;;;;5104956;28;20471;-67
2022/11/11 04:58:03;;;;;;;4.03;3.70;;;10.10;93.00;;;;;;5105245;28;20405;-67
2022/11/11 05:00:30;;;;;;;6.93;4.10;;;10.20;92.90;;;;;;5104897;28;20454;-67
2022/11/11 05:03:15;;;;;;;7.73;4.07;;;10.20;92.70;;;;;;5104426;28;20474;-68
2022/11/11 05:11:12;;;;;;;5.20;4.70;;;10.30;92.20;;;;;;5104508;28;20470;-66
2022/11/11 05:22:05;;;;;;;5.40;4.60;;;10.30;91.80;;;;;;5106066;28;20418;-67
2022/11/11 05:27:15;;;;;;;7.33;4.23;;;10.30;91.90;;;;;;5075515;28;20449;-67
2022/11/11 05:29:42;;;;;;;7.53;3.87;;;10.30;92.00;;;;;;5106805;28;20433;-66
2022/11/11 05:32:08;;;;;;;5.17;4.63;;;10.20;92.20;;;;;;5110016;28;20473;-66
2022/11/11 05:34:36;;;;;;;6.97;4.30;;;10.20;92.30;;;;;;5109900;28;20422;-67
2022/11/11 05:37:03;;;;;;;6.93;4.30;;;10.10;92.40;;;;;;5109339;28;20457;-68
2022/11/11 05:39:30;;;;;;;4.53;3.50;;;10.10;92.70;;;;;;5109574;28;21030;-68
2022/11/11 05:41:56;;;;;;;4.60;3.10;;;10.00;92.80;;;;;;5108646;28;20450;-68
2022/11/11 05:44:23;;;;;;;5.77;3.10;;;10.00;92.90;;;;;;5108956;28;20440;-67
2022/11/11 05:46:50;;;;;;;5.73;3.47;;;9.90;93.70;;;;;;5107583;28;20449;-67
2022/11/11 05:49:17;;;;;;;2.83;2.63;;;9.90;93.90;;;;;;5110256;28;20457;-67
2022/11/11 05:51:46;;;;;;;6.50;3.07;;;9.80;94.00;;;;;;5109633;28;20450;-67
2022/11/11 05:54:13;;;;;;;6.40;3.20;;;9.80;94.10;;;;;;5107923;28;20449;-68
2022/11/11 05:56:40;;;;;;;3.90;2.93;;;9.80;94.10;;;;;;5108128;28;20459;-67
2022/11/11 05:59:08;;;;;;;4.80;2.83;;;9.80;94.30;;;;;;5109379;28;20482;-66
2022/11/11 06:01:35;;;;;;;4.50;3.10;;;9.80;94.30;;;;;;5109725;28;20452;-66
2022/11/11 06:04:02;;;;;;;3.67;2.80;;;9.80;94.30;;;;;;5108631;28;20465;-68
2022/11/11 06:06:29;;;;;;;6.20;3.23;;;9.80;94.30;;;;;;5110629;28;20442;-66
2022/11/11 06:08:57;;;;;;;6.67;4.17;;;9.90;94.30;;;;;;5109510;28;20448;-66
2022/11/11 06:11:24;;;;;;;3.70;3.30;;;9.90;94.20;;;;;;5110014;28;20461;-68
2022/11/11 06:13:51;;;;;;;5.40;3.77;;;10.00;93.50;;;;;;5110298;28;20469;-68
2022/11/11 06:16:18;;;;;;;5.97;4.47;;;10.00;93.20;;;;;;5110137;28;20430;-66
2022/11/11 06:18:45;;;;;;;4.60;4.13;;;10.00;93.00;;;;;;5110848;28;20467;-67
2022/11/11 06:21:11;;;;;;;5.23;4.13;;;10.10;92.90;;;;;;5109491;28;20447;-67
2022/11/11 06:23:38;;;;;;;4.10;3.77;;;10.10;92.70;;;;;;5109081;28;20473;-67
2022/11/11 06:26:12;;;;;;;4.60;4.20;;;10.10;92.60;;;;;;5107291;28;20426;-67
2022/11/11 06:28:41;;;;;;;5.80;3.57;;;10.10;92.40;;;;;;5110058;28;20420;-67
2022/11/11 06:31:08;;;;;;;6.03;3.70;;;10.10;92.30;;;;;;5110735;28;20443;-67
2022/11/11 06:33:35;;;;;;;5.00;3.07;;;10.10;92.20;;;;;;5115456;28;20462;-67
2022/11/11 06:36:03;;;;;;;4.03;2.90;;;10.10;92.20;;;;;;5108720;28;20449;-68
2022/11/11 06:38:29;;;;;;;6.73;3.63;;;10.00;92.40;;;;;;5108486;28;20448;-67
2022/11/11 06:40:57;;;;;;;5.27;3.30;;;9.90;93.30;;;;;;5109493;28;20474;-67
2022/11/11 06:43:25;;;;;;;4.70;3.40;;;9.90;93.50;;;;;;5108731;28;20533;-66
2022/11/11 06:45:53;;;;;;;3.60;3.30;;;9.90;93.60;;;;;;5109788;28;20447;-67
2022/11/11 06:48:20;;;;;;;3.00;2.70;;;9.90;93.60;;;;;;5108974;28;20439;-66
2022/11/11 06:50:47;;;;;;;5.70;3.00;;;9.90;93.50;;;;;;5108591;28;20457;-66
2022/11/11 06:53:16;;;;;;;6.93;3.93;;;10.00;92.90;;;;;;5109230;28;20474;-66
2022/11/11 06:55:43;;;;;;;4.00;3.30;;;9.90;93.40;;;;;;5109176;28;20482;-67
2022/11/11 06:58:12;;;;;;;6.50;3.27;;;9.90;93.60;;;;;;5110363;28;20439;-67
2022/11/11 07:00:40;;;;;;;3.53;3.23;;;9.90;93.60;;;;;;5110979;28;20470;-67
2022/11/11 07:03:09;;;;;;;4.43;3.03;;;9.90;93.50;;;;;;5110952;28;20555;-67
2022/11/11 07:05:36;;;;;;;5.10;2.80;;;9.90;93.50;;;;;;5111712;28;20447;-67
2022/11/11 07:08:04;;;;;;;4.57;2.93;;;9.90;93.50;;;;;;5108883;28;20435;-68
2022/11/11 07:10:31;;;;;;;6.00;2.73;;;9.90;93.50;;;;;;5113048;28;20453;-68
2022/11/11 07:12:58;;;;;;;3.30;3.00;;;9.90;93.50;;;;;;5112074;28;20466;-68
2022/11/11 07:15:25;;;;;;;3.53;2.90;;;9.90;93.60;;;;;;5111467;28;20434;-67
2022/11/11 07:17:53;;;;;;;3.80;3.50;;;9.90;93.70;;;;;;5111041;28;20441;-67
2022/11/11 07:20:20;;;;;;;8.77;3.47;;;9.90;93.70;;;;;;5108620;28;20501;-67
2022/11/11 07:22:47;;;;;;;3.33;2.60;;;10.00;93.20;;;;;;5108721;28;20514;-67
2022/11/11 07:25:14;;;;;;;3.83;3.30;;;10.00;93.20;;;;;;5109421;28;20453;-67
2022/11/11 07:27:42;;;;;;;4.93;3.30;;;10.10;93.00;;;;;;5110494;28;20437;-67
2022/11/11 07:30:10;;;;;;;5.17;3.20;;;10.10;92.90;;;;;;5109350;28;20425;-67
2022/11/11 07:32:40;;;;;;;4.37;3.40;;;10.10;92.90;;;;;;5108088;28;21000;-67
2022/11/11 07:35:09;;;;;;;7.63;3.00;;;10.20;93.00;;;;;;5106883;28;20433;-67
2022/11/11 07:37:37;;;;;;;3.30;2.97;;;10.20;92.70;;;;;;5111247;28;20512;-68
2022/11/11 07:40:04;;;;;;;5.50;3.80;;;10.30;92.80;;;;;;5112889;28;20468;-67
2022/11/11 07:42:31;;;;;;;7.33;4.97;;;10.40;92.80;;;;;;5112940;28;20462;-68
2022/11/11 07:44:58;;;;;;;7.73;5.50;;;10.50;92.60;;;;;;5110991;28;20447;-66
2022/11/11 07:50:55;;;;;;;8.53;5.70;;;10.60;92.40;;;;;;5075768;28;20459;-64
2022/11/11 07:53:24;;;;;;;6.10;5.07;;;10.70;92.30;;;;;;5109695;28;20463;-65
2022/11/11 07:55:51;;;;;;;5.70;4.20;;;10.80;92.10;;;;;;5110666;28;20538;-65
2022/11/11 07:58:18;;;;;;;6.70;4.63;;;10.90;92.00;;;;;;5111277;28;20442;-65
2022/11/11 08:00:44;;;;;;;9.67;4.90;;;10.90;91.90;;;;;;5112604;28;20479;-67
2022/11/11 08:03:11;;;;;;;7.73;4.30;;;11.00;91.80;;;;;;5111256;28;20465;-67
2022/11/11 08:05:38;;;;;;;8.70;4.10;;;11.00;91.60;;;;;;5108523;28;20424;-66
2022/11/11 08:08:06;;;;;;;20.30;6.10;;;11.00;91.40;;;;;;5109003;28;20452;-66
2022/11/11 08:10:34;;;;;;;8.47;4.03;;;11.00;91.20;;;;;;5114388;28;20418;-67
2022/11/11 08:15:46;;;;;;;10.63;5.30;;;11.10;91.30;;;;;;5106610;28;20403;-67
2022/11/11 08:18:12;;;;;;;9.07;5.33;;;11.10;91.30;;;;;;5106353;28;20458;-65
2022/11/11 08:20:39;;;;;;;9.80;5.37;;;11.20;91.40;;;;;;5103761;28;20478;-66
2022/11/11 08:23:09;;;;;;;7.57;5.43;;;11.30;91.40;;;;;;5101891;28;20466;-67
2022/11/11 08:25:37;;;;;;;7.70;5.03;;;11.30;91.40;;;;;;5103664;28;20437;-67
2022/11/11 08:28:05;;;;;;;9.40;5.57;;;11.40;91.30;;;;;;5103096;28;20447;-67
2022/11/11 08:30:32;;;;;;;16.40;5.80;;;11.50;91.30;;;;;;5104252;28;20442;-66
2022/11/11 08:32:59;;;;;;;8.23;5.03;;;11.50;91.10;;;;;;5104275;28;20471;-67
2022/11/11 08:35:26;;;;;;;7.57;4.97;;;11.60;91.00;;;;;;5103042;28;20454;-67
2022/11/11 08:37:53;;;;;;;4.90;4.40;;;11.70;90.70;;;;;;5104273;28;20511;-67
2022/11/11 08:40:20;;;;;;;9.07;3.83;;;11.70;90.40;;;;;;5105628;28;20490;-66
2022/11/11 08:42:49;;;;;;;3.67;3.37;;;11.70;90.20;;;;;;5104798;28;20465;-67
2022/11/11 08:45:15;;;;;;;7.70;3.50;;;11.70;90.10;;;;;;5105233;28;20446;-67
2022/11/11 08:47:44;;;;;;;4.53;3.37;;;11.70;90.20;;;;;;5105334;28;20441;-66
2022/11/11 08:50:11;;;;;;;5.67;3.63;;;11.60;90.10;;;;;;5105153;28;20445;-67
2022/11/11 08:52:38;;;;;;;6.73;3.73;;;11.60;90.30;;;;;;5108654;28;20471;-67
2022/11/11 08:55:05;;;;;;;5.63;3.80;;;11.60;90.30;;;;;;5112379;28;20446;-67
2022/11/11 08:57:32;;;;;;;4.20;3.80;;;11.70;90.30;;;;;;5106444;28;20964;-67
2022/11/11 09:00:00;;;;;;;4.57;4.07;;;11.70;90.40;;;;;;5104562;28;20481;-66
2022/11/11 09:02:26;;;;;;;6.10;3.50;;;11.70;90.40;;;;;;5104998;28;20505;-67
2022/11/11 09:04:53;;;;;;;3.90;3.50;;;11.80;90.40;;;;;;5106856;28;20448;-67
2022/11/11 09:07:20;;;;;;;5.50;3.63;;;11.90;90.20;;;;;;5109963;28;20440;-67
2022/11/11 09:09:46;;;;;;;5.40;3.63;;;11.90;90.20;;;;;;5110380;28;20448;-66
2022/11/11 09:12:13;;;;;;;5.60;2.70;;;12.00;90.20;;;;;;5111387;28;20475;-66
2022/11/11 09:14:40;;;;;;;4.77;3.47;;;12.00;90.10;;;;;;5110350;28;20458;-67
2022/11/11 09:17:08;;;;;;;3.83;3.43;;;12.10;89.80;;;;;;5111393;28;20440;-68
2022/11/11 09:19:35;;;;;;;6.03;3.63;;;12.20;89.30;;;;;;5110366;28;20478;-67
2022/11/11 09:22:02;;;;;;;3.57;3.27;;;12.30;89.00;;;;;;5111074;28;20463;-67
2022/11/11 09:24:28;;;;;;;7.30;3.50;;;12.40;88.80;;;;;;5111297;28;20482;-68
2022/11/11 09:26:55;;;;;;;4.27;3.23;;;12.40;88.40;;;;;;5111037;28;20447;-67
2022/11/11 09:29:22;;;;;;;5.30;3.20;;;12.50;87.90;;;;;;5110940;28;20462;-67
2022/11/11 09:31:49;;;;;;;5.57;3.60;;;12.60;87.90;;;;;;5111398;28;20446;-67
2022/11/11 09:34:17;;;;;;;5.97;3.70;;;12.70;87.80;;;;;;5111020;28;20457;-67
2022/11/11 09:36:43;;;;;;;6.77;3.43;;;12.70;87.50;;;;;;5109669;28;20968;-67
2022/11/11 09:39:10;;;;;;;4.47;3.27;;;12.80;87.40;;;;;;5108746;28;20451;-66
2022/11/11 09:41:48;;;;;;;5.80;3.77;;;12.90;87.10;;;;;;5109254;28;20451;-67
2022/11/11 09:44:26;;;;;;;5.40;3.40;;;13.00;86.70;;;;;;5111198;28;20431;-67
2022/11/11 09:47:00;;;;;;;4.97;3.23;;;13.10;86.80;;;;;;5111091;28;20424;-67
2022/11/11 09:49:54;;;;;;;3.50;3.20;;;13.20;85.30;;;;;;5110114;28;20432;-67
2022/11/11 09:52:26;;;;;;;8.03;3.37;;;13.30;84.80;;;;;;5106775;28;20467;-67
2022/11/11 09:54:58;;;;;;;5.40;3.07;;;13.40;84.50;;;;;;5109966;28;20420;-68
2022/11/11 09:57:38;;;;;;;3.70;3.40;;;13.40;84.40;;;;;;5110183;28;20837;-68
2022/11/11 10:00:15;;;;;;;8.10;3.40;;;13.60;83.70;;;;;;5110180;28;20467;-67
2022/11/11 10:02:47;;;;;;;6.13;3.00;;;13.70;83.50;;;;;;5110825;28;20474;-67
2022/11/11 10:05:19;;;;;;;12.77;3.80;;;13.80;82.20;;;;;;5111721;28;20431;-68
2022/11/11 10:07:48;;;;;;;5.13;3.40;;;13.90;81.70;;;;;;5110959;28;20428;-67
2022/11/11 10:10:23;;;;;;;6.70;3.70;;;14.00;81.50;;;;;;5110215;28;20444;-67
2022/11/11 10:12:54;;;;;;;6.50;3.00;;;14.00;80.70;;;;;;5110335;28;20460;-67
2022/11/11 10:15:23;;;;;;;7.60;3.60;;;14.20;80.20;;;;;;5110332;28;20432;-67
2022/11/11 10:18:02;;;;;;;7.63;4.40;;;14.30;79.70;;;;;;5109044;28;20452;-67
2022/11/11 10:20:32;;;;;;;7.80;3.20;;;14.40;78.70;;;;;;5110378;28;20498;-66
2022/11/11 10:23:04;;;;;;;3.77;2.93;;;14.50;77.70;;;;;;5109667;28;20845;-66
2022/11/11 10:25:31;;;;;;;6.73;3.20;;;14.60;77.10;;;;;;5110182;28;20443;-67
2022/11/11 10:28:01;;;;;;;3.50;3.23;;;14.70;76.60;;;;;;5108982;28;20515;-67
2022/11/11 10:30:30;;;;;;;8.47;2.90;;;14.70;76.60;;;;;;5108632;28;20424;-67
2022/11/11 10:33:00;;;;;;;3.43;2.50;;;14.90;76.00;;;;;;5108040;28;20471;-67
2022/11/11 10:35:29;;;;;;;5.67;2.70;;;15.00;75.30;;;;;;5109261;28;20436;-67
2022/11/11 10:38:06;;;;;;;3.00;2.57;;;15.20;75.00;;;;;;5108244;28;20452;-67
2022/11/11 10:40:39;;;;;;;2.80;2.50;;;15.40;74.50;;;;;;5110162;28;20460;-66
2022/11/11 10:43:14;;;;;;;3.03;2.70;;;15.60;72.90;;;;;;5108968;28;20479;-66
2022/11/11 10:45:46;;;;;;;6.33;3.33;;;15.70;71.70;;;;;;5106718;28;20446;-67
2022/11/11 10:48:16;;;;;;;4.50;2.70;;;15.70;71.30;;;;;;5107556;28;20440;-66
2022/11/11 10:50:47;;;;;;;4.17;2.97;;;15.90;71.00;;;;;;5107223;28;20906;-66
2022/11/11 10:53:22;;;;;;;2.90;2.30;;;16.00;69.20;;;;;;5106827;28;20460;-66
2022/11/11 10:55:55;;;;;;;3.73;2.27;;;16.10;68.70;;;;;;5107972;28;20428;-66
2022/11/11 10:58:28;;;;;;;2.97;2.10;;;16.20;68.10;;;;;;5109638;28;20432;-67
2022/11/11 11:00:55;;;;;;;4.07;2.37;;;16.30;67.60;;;;;;5108309;28;20466;-67
2022/11/11 11:03:26;;;;;;;8.53;2.60;;;16.50;67.30;;;;;;5106511;28;20467;-68
2022/11/11 11:05:58;;;;;;;5.00;2.53;;;16.70;66.60;;;;;;5105667;28;20436;-67
2022/11/11 11:08:29;;;;;;;5.20;2.50;;;16.90;66.10;;;;;;5106272;28;20432;-67
2022/11/11 11:10:58;;;;;;;2.20;2.00;;;16.90;64.60;;;;;;5106179;28;20917;-67
2022/11/11 11:13:34;;;;;;;4.43;2.27;;;17.00;64.10;;;;;;5106330;28;20460;-67
2022/11/11 11:16:06;;;;;;;4.30;2.27;;;17.00;63.80;;;;;;5106903;28;20420;-67
2022/11/11 11:18:33;;;;;;;4.20;2.00;;;17.00;63.40;;;;;;5105165;28;20439;-67
2022/11/11 11:21:02;;;;;;;2.00;1.80;;;17.00;63.40;;;;;;5105440;28;20479;-67
2022/11/11 11:23:39;;;;;;;4.10;2.70;;;17.00;63.80;;;;;;5105874;28;20979;-67
2022/11/11 11:26:06;;;;;;;3.73;2.60;;;17.10;64.10;;;;;;5107553;28;20423;-67
2022/11/11 11:28:34;;;;;;;4.07;2.30;;;17.30;63.20;;;;;;5107047;28;20780;-67
2022/11/11 11:31:02;;;;;;;3.20;2.40;;;17.40;62.30;;;;;;5107789;28;20429;-68
2022/11/11 11:33:51;;;;;;;3.10;2.13;;;17.60;62.00;;;;;;5109240;28;20464;-68
2022/11/11 11:36:18;;;;;;;7.93;2.80;;;17.70;61.50;;;;;;5108680;28;20462;-67
2022/11/11 11:38:49;;;;;;;5.93;2.87;;;17.90;60.50;;;;;;5107538;28;20439;-67
2022/11/11 11:41:17;;;;;;;2.43;1.93;;;18.10;59.70;;;;;;5107580;28;20472;-67
2022/11/11 11:43:44;;;;;;;4.80;2.47;;;18.30;59.10;;;;;;5104805;28;20490;-68
2022/11/11 11:46:19;;;;;;;5.27;2.47;;;18.40;58.70;;;;;;5106571;28;20939;-68
2022/11/11 11:49:09;;;;;;;3.90;2.40;;;18.50;57.50;;;;;;5106299;28;20492;-68
2022/11/11 11:51:44;;;;;;;3.80;2.10;;;18.40;57.30;;;;;;5107091;28;20431;-68
2022/11/11 11:54:41;;;;;;;4.90;2.90;;;18.30;57.20;;;;;;5107408;28;20437;-68
2022/11/11 11:57:20;;;;;;;2.90;2.30;;;18.40;57.50;;;;;;5104035;28;20428;-68
2022/11/11 11:59:55;;;;;;;3.57;2.40;;;18.50;57.40;;;;;;5113608;28;20496;-67
2022/11/11 12:02:43;;;;;;;3.83;2.50;;;18.60;57.10;;;;;;5109802;28;20466;-67
2022/11/11 12:05:21;;;;;;;4.60;2.60;;;18.80;57.00;;;;;;5108312;28;20432;-67
2022/11/11 12:08:10;;;;;;;3.80;3.10;;;18.90;57.50;;;;;;5107786;28;20833;-68
2022/11/11 12:10:45;;;;;;;2.40;2.10;;;19.20;57.00;;;;;;5107399;28;20432;-68
2022/11/11 12:13:24;;;;;;;2.90;2.17;;;19.30;55.10;;;;;;5106896;28;20523;-68
2022/11/11 12:15:58;;;;;;;2.70;1.90;;;19.40;54.80;;;;;;5107097;28;20424;-68
2022/11/11 12:19:05;;;;;;;3.10;2.20;;;19.60;54.20;;;;;;5107720;28;20428;-68
2022/11/11 12:21:38;;;;;;;2.13;1.80;;;19.90;54.30;;;;;;5096680;28;20579;-68
2022/11/11 12:24:13;;;;;;;2.20;1.80;;;20.10;54.10;;;;;;5110544;28;20431;-70
2022/11/11 12:26:49;;;;;;;3.37;2.30;;;20.40;52.50;;;;;;5110378;28;20431;-70
2022/11/11 12:29:34;;;;;;;2.23;1.60;;;20.70;51.40;;;;;;5109862;28;20427;-70
2022/11/11 12:32:15;;;;;;;5.10;1.97;;;21.00;50.10;;;;;;5112061;28;20456;-70
2022/11/11 12:35:07;;;;;;;2.07;1.90;;;21.20;49.80;;;;;;5111791;28;20424;-71
2022/11/11 12:37:44;;;;;;;6.40;3.00;;;21.40;49.60;;;;;;5094393;28;20475;-70
2022/11/11 12:40:23;;;;;;;2.50;2.30;;;21.50;49.20;;;;;;5091403;28;20435;-70
2022/11/11 12:43:02;;;;;;;5.80;3.00;;;21.60;49.90;;;;;;5109963;28;20467;-69
2022/11/11 12:45:38;;;;;;;3.07;2.07;;;21.60;49.90;;;;;;5111606;28;20434;-69
2022/11/11 12:48:19;;;;;;;6.60;2.47;;;21.50;49.00;;;;;;5089651;28;20487;-69
2022/11/11 12:50:54;;;;;;;2.30;2.10;;;21.40;49.00;;;;;;5108218;28;20440;-70
2022/11/11 12:53:33;;;;;;;2.47;2.20;;;21.40;49.30;;;;;;5108608;28;20464;-70
2022/11/11 12:56:08;;;;;;;8.60;2.30;;;21.50;49.30;;;;;;5109457;28;20887;-70
2022/11/11 12:58:46;;;;;;;4.30;3.27;;;21.70;49.20;;;;;;5110356;28;20428;-70
2022/11/11 13:01:23;;;;;;;3.20;2.63;;;21.90;48.60;;;;;;5109636;28;20464;-70
2022/11/11 13:04:19;;;;;;;4.03;3.20;;;22.10;48.30;;;;;;5109628;28;20467;-70
2022/11/11 13:07:05;;;;;;;4.17;3.10;;;22.20;48.50;;;;;;5109167;28;20433;-70
2022/11/11 13:09:51;;;;;;;3.00;2.70;;;22.40;48.90;;;;;;5109269;28;20439;-70
2022/11/11 13:12:22;;;;;;;4.93;3.07;;;22.40;48.50;;;;;;5109349;28;20464;-70
2022/11/11 13:15:01;;;;;;;4.33;2.97;;;22.30;48.50;;;;;;5109762;28;20432;-70
2022/11/11 13:17:28;;;;;;;4.93;2.87;;;22.30;49.00;;;;;;5110636;28;20440;-70
2022/11/11 13:19:58;;;;;;;6.23;2.57;;;22.50;49.10;;;;;;5109436;28;20444;-70
2022/11/11 13:22:27;;;;;;;5.93;3.00;;;22.70;48.30;;;;;;5108750;28;20476;-67
2022/11/11 13:24:55;;;;;;;6.20;2.57;;;22.80;48.30;;;;;;5109152;28;20428;-67
2022/11/11 13:27:35;;;;;;;6.17;2.80;;;22.90;48.50;;;;;;5109313;28;20448;-67
2022/11/11 13:30:37;;;;;;;2.87;2.60;;;22.80;47.20;;;;;;5108999;28;20424;-69
2022/11/11 13:33:08;;;;;;;4.20;2.87;;;22.60;47.60;;;;;;5109076;28;20463;-69
2022/11/11 13:35:39;;;;;;;7.63;2.97;;;22.50;48.30;;;;;;5109479;28;20447;-69
2022/11/11 13:38:07;;;;;;;5.10;2.50;;;22.50;48.30;;;;;;5109496;28;20428;-69
2022/11/11 13:40:38;;;;;;;5.23;2.77;;;22.60;48.50;;;;;;5110355;28;20439;-70
2022/11/11 13:43:14;;;;;;;3.27;2.70;;;22.70;48.60;;;;;;5108989;28;20468;-70
2022/11/11 13:45:50;;;;;;;3.67;2.70;;;22.60;48.70;;;;;;5109671;28;20434;-70
2022/11/11 13:48:24;;;;;;;4.50;2.90;;;22.30;48.90;;;;;;5109510;28;20502;-70
2022/11/11 13:50:50;;;;;;;4.60;3.50;;;22.10;49.70;;;;;;5109277;28;20416;-70
2022/11/11 13:53:28;;;;;;;5.37;2.87;;;21.80;50.50;;;;;;5112354;28;20475;-70
2022/11/11 13:56:02;;;;;;;6.70;2.57;;;21.50;50.80;;;;;;5113018;28;20430;-70
2022/11/11 13:58:31;;;;;;;6.03;2.93;;;21.20;51.40;;;;;;5112137;28;20428;-70
2022/11/11 14:01:02;;;;;;;5.27;2.80;;;20.90;51.90;;;;;;5112573;28;20464;-70
2022/11/11 14:03:32;;;;;;;8.87;2.97;;;20.60;52.60;;;;;;5112288;28;20456;-70
2022/11/11 14:06:36;;;;;;;6.33;3.57;;;20.40;53.50;;;;;;5111576;28;20429;-70
2022/11/11 14:09:04;;;;;;;5.37;3.43;;;20.10;54.20;;;;;;5110448;28;20458;-70
2022/11/11 14:11:34;;;;;;;4.70;2.80;;;19.90;54.80;;;;;;5111143;28;20436;-70
2022/11/11 14:14:34;;;;;;;6.33;3.50;;;19.70;55.40;;;;;;5111454;28;20460;-70
2022/11/11 14:17:04;;;;;;;3.63;3.30;;;19.40;56.10;;;;;;5111468;28;20424;-70
2022/11/11 14:19:32;;;;;;;5.87;4.00;;;19.30;56.50;;;;;;5111163;28;20428;-70
2022/11/11 14:22:00;;;;;;;7.03;3.73;;;19.10;57.00;;;;;;5111455;28;20492;-70
2022/11/11 14:24:36;;;;;;;5.33;3.60;;;19.00;57.60;;;;;;5112067;28;20448;-70